Terminal Aerodrome Forecast
Issued by NWS

Home | Current Version | Previous Version | Text Only | Print | Product List | Glossary On
Versions: 1 2 3 4 5 6 7 8 9 10 11 12 13 14 15 16 17 18 19 20 21 22 23 24 25 26 27 28 29 30 31 32 33 34
000
FTUS43 KGLD 211700
TAFMCK
TAF
KMCK 211720Z 2118/2218 23010KT P6SM BKN170
     FM212200 21009KT P6SM VCTS FEW120CB BKN180
     FM220100 20008KT P6SM SCT120 BKN180
     FM220800 23006KT P6SM SCT250
     FM221200 27005KT P6SM FEW250
     FM221500 34005KT P6SM SKC
     FM221700 02010KT P6SM SKC=

USA.gov is the U.S. government's official web portal to all federal, state and local government web resources and services.